createdAt,value
2022-08-02T00:00:20.855Z,2.88
2022-08-02T00:03:08.088Z,3.50
2022-08-02T00:05:40.279Z,3.00
2022-08-02T00:08:12.665Z,3.13
2022-08-02T00:10:47.598Z,3.33
2022-08-02T00:13:19.973Z,2.95
2022-08-02T00:16:17.845Z,2.92
2022-08-02T00:18:50.636Z,3.03
2022-08-02T00:21:22.946Z,2.30
2022-08-02T00:24:27.576Z,2.70
2022-08-02T00:26:50.645Z,2.72
2022-08-02T00:29:23.353Z,2.50
2022-08-02T00:31:55.113Z,2.53
2022-08-02T00:34:33.996Z,2.75
2022-08-02T00:37:12.909Z,2.17
2022-08-02T00:39:51.721Z,2.45
2022-08-02T00:42:26.838Z,2.30
2022-08-02T00:44:59.051Z,2.60
2022-08-02T00:47:30.947Z,2.13
2022-08-02T00:50:04.239Z,2.10
2022-08-02T00:52:39.487Z,2.58
2022-08-02T00:55:17.562Z,2.70
2022-08-02T00:57:58.062Z,2.03
2022-08-02T01:00:32.987Z,2.08
2022-08-02T01:03:08.670Z,2.35
2022-08-02T01:06:24.475Z,2.40
2022-08-02T01:08:56.514Z,2.55
2022-08-02T01:11:29.684Z,2.60
2022-08-02T01:14:09.381Z,2.55
2022-08-02T01:16:49.813Z,2.45
2022-08-02T01:19:40.546Z,1.83
2022-08-02T01:26:03.383Z,2.10
2022-08-02T01:28:44.664Z,2.40
2022-08-02T01:31:24.715Z,2.50
2022-08-02T01:34:06.633Z,2.03
2022-08-02T01:36:44.195Z,2.15
2022-08-02T01:39:27.541Z,2.55
2022-08-02T01:42:07.185Z,2.22
2022-08-02T01:44:45.711Z,2.80
2022-08-02T01:47:21.545Z,2.10
2022-08-02T01:49:58.119Z,2.30
2022-08-02T01:52:33.504Z,2.00
2022-08-02T01:55:18.378Z,2.08
2022-08-02T01:58:07.746Z,2.30
2022-08-02T02:00:45.004Z,2.65
2022-08-02T02:03:22.684Z,2.33
2022-08-02T02:05:58.125Z,2.22
2022-08-02T02:08:35.695Z,2.60
2022-08-02T02:12:09.478Z,2.70
2022-08-02T02:14:04.585Z,2.38
2022-08-02T02:16:47.661Z,2.20
2022-08-02T02:19:23.885Z,2.17
2022-08-02T02:21:56.192Z,2.33
2022-08-02T02:24:28.875Z,2.45
2022-08-02T02:27:03.095Z,2.38
2022-08-02T02:29:37.186Z,2.20
2022-08-02T02:35:02.811Z,2.30
2022-08-02T02:37:38.377Z,1.85
2022-08-02T02:40:14.327Z,2.30
2022-08-02T02:42:49.655Z,2.35
2022-08-02T02:45:30.937Z,2.67
2022-08-02T02:48:13.883Z,2.10
2022-08-02T02:50:47.046Z,2.42
2022-08-02T02:53:22.683Z,2.10
2022-08-02T02:56:01.706Z,2.35
2022-08-02T02:58:41.699Z,2.40
2022-08-02T03:01:55.713Z,2.72
2022-08-02T03:04:55.460Z,2.58
2022-08-02T03:07:24.559Z,2.00
2022-08-02T03:09:58.050Z,2.50
2022-08-02T03:12:32.514Z,3.13
2022-08-02T03:15:10.279Z,2.33
2022-08-02T03:17:47.048Z,2.15
2022-08-02T03:20:24.398Z,2.05
2022-08-02T03:22:56.918Z,2.75
2022-08-02T03:25:29.898Z,2.40
2022-08-02T03:28:02.577Z,2.63
2022-08-02T03:30:35.191Z,2.90
2022-08-02T03:33:07.759Z,2.42
2022-08-02T03:35:45.337Z,2.50
2022-08-02T03:38:21.797Z,2.70
2022-08-02T03:40:54.518Z,2.53
2022-08-02T03:43:28.646Z,2.95
2022-08-02T03:46:04.730Z,3.10
2022-08-02T03:48:40.043Z,2.92
2022-08-02T03:51:14.703Z,3.28
2022-08-02T03:53:46.624Z,3.17
2022-08-02T03:56:22.984Z,3.30
2022-08-02T03:59:09.855Z,3.15
2022-08-02T04:01:43.113Z,3.65
2022-08-02T04:04:14.346Z,3.42
2022-08-02T04:06:51.353Z,3.40
2022-08-02T04:09:27.123Z,2.97
2022-08-02T04:12:02.922Z,3.15
2022-08-02T04:14:36.425Z,3.72
2022-08-02T04:17:18.044Z,3.88
2022-08-02T04:19:53.776Z,3.83
2022-08-02T04:22:32.408Z,3.85
2022-08-02T04:25:06.574Z,4.03
2022-08-02T04:28:16.767Z,4.07
2022-08-02T04:30:45.320Z,3.65
2022-08-02T04:33:17.551Z,3.78
2022-08-02T04:35:49.005Z,4.40
2022-08-02T04:38:23.328Z,4.18
2022-08-02T04:40:55.808Z,4.40
2022-08-02T04:43:27.831Z,5.13
2022-08-02T04:45:59.479Z,4.25
2022-08-02T04:48:36.456Z,4.38
2022-08-02T04:51:07.792Z,4.53
2022-08-02T04:53:42.150Z,4.35
2022-08-02T04:56:14.276Z,4.22
2022-08-02T04:58:47.828Z,4.07
2022-08-02T05:01:19.224Z,4.50
2022-08-02T05:03:59.332Z,4.20
2022-08-02T05:06:30.639Z,4.35
2022-08-02T05:09:04.780Z,4.68
2022-08-02T05:11:37.382Z,3.92
2022-08-02T05:14:10.128Z,4.25
2022-08-02T05:16:44.980Z,4.00
2022-08-02T05:19:18.159Z,4.07
2022-08-02T05:21:52.401Z,3.78
2022-08-02T05:24:26.463Z,4.00
2022-08-02T05:26:57.621Z,3.90
2022-08-02T05:29:32.476Z,3.47
2022-08-02T05:32:03.513Z,4.00
2022-08-02T05:34:34.980Z,4.10
2022-08-02T05:37:09.019Z,4.32
2022-08-02T05:39:55.432Z,5.28
2022-08-02T05:42:30.518Z,4.20
2022-08-02T05:45:02.299Z,3.90
2022-08-02T05:47:33.903Z,3.50
2022-08-02T05:50:06.805Z,3.83
2022-08-02T05:52:47.834Z,4.65
2022-08-02T05:55:30.564Z,3.13
2022-08-02T05:58:09.226Z,3.50
2022-08-02T06:00:44.175Z,3.13
2022-08-02T06:03:25.476Z,3.28
2022-08-02T06:06:03.254Z,2.80
2022-08-02T06:08:36.329Z,2.72
2022-08-02T06:11:15.369Z,2.85
2022-08-02T06:13:48.869Z,3.40
2022-08-02T06:16:32.065Z,3.28
2022-08-02T06:19:05.731Z,3.20
2022-08-02T06:22:41.743Z,2.65
2022-08-02T06:24:38.209Z,2.90
2022-08-02T06:27:15.698Z,2.97
2022-08-02T06:29:47.686Z,2.95
2022-08-02T06:32:24.534Z,2.70
2022-08-02T06:34:58.499Z,2.80
2022-08-02T06:37:38.670Z,2.55
2022-08-02T06:40:17.759Z,2.40
2022-08-02T06:43:09.622Z,2.75
2022-08-02T06:45:44.494Z,2.88
2022-08-02T06:48:16.133Z,2.30
2022-08-02T06:50:47.673Z,2.50
2022-08-02T06:53:19.211Z,2.63
2022-08-02T06:55:50.671Z,2.40
2022-08-02T06:58:24.819Z,2.20
2022-08-02T07:00:56.585Z,2.40
2022-08-02T07:03:28.477Z,3.35
2022-08-02T07:05:59.962Z,2.10
2022-08-02T07:08:33.398Z,2.20
2022-08-02T07:11:05.991Z,2.00
2022-08-02T07:13:41.433Z,2.13
2022-08-02T07:16:13.851Z,2.30
2022-08-02T07:18:46.612Z,2.28
2022-08-02T07:21:19.036Z,2.00
2022-08-02T07:24:11.786Z,1.90
2022-08-02T07:27:08.614Z,1.70
2022-08-02T07:29:45.276Z,1.80
2022-08-02T07:32:19.350Z,1.90
2022-08-02T07:34:53.602Z,1.70
2022-08-02T07:37:53.690Z,1.90
2022-08-02T07:40:22.113Z,1.40
2022-08-02T07:43:00.982Z,2.13
2022-08-02T07:45:45.881Z,1.73
2022-08-02T07:48:28.533Z,1.92
2022-08-02T07:51:21.219Z,1.73
2022-08-02T07:54:16.911Z,1.80
2022-08-02T07:56:50.844Z,2.05
2022-08-02T07:59:31.052Z,1.70
2022-08-02T08:02:06.451Z,1.58
2022-08-02T08:04:39.022Z,1.77
2022-08-02T08:07:12.501Z,1.80
2022-08-02T08:09:45.479Z,1.70
2022-08-02T08:12:18.300Z,1.40
2022-08-02T08:14:50.582Z,1.70
2022-08-02T08:17:26.949Z,1.67
2022-08-02T08:19:59.283Z,1.48
2022-08-02T08:22:31.602Z,1.65
2022-08-02T08:25:04.077Z,1.50
2022-08-02T08:27:39.049Z,1.48
2022-08-02T08:30:12.576Z,1.95
2022-08-02T08:32:47.196Z,1.60
2022-08-02T08:35:20.200Z,1.30
2022-08-02T08:37:52.619Z,1.55
2022-08-02T08:40:23.994Z,1.35
2022-08-02T08:42:56.055Z,1.80
2022-08-02T08:45:27.587Z,1.75
2022-08-02T08:48:05.167Z,1.65
2022-08-02T08:50:47.057Z,1.40
2022-08-02T08:53:20.526Z,1.80
2022-08-02T08:55:57.003Z,1.52
2022-08-02T08:58:31.420Z,1.70
2022-08-02T09:01:04.235Z,1.95
2022-08-02T09:03:39.341Z,1.80
2022-08-02T09:06:11.800Z,1.67
2022-08-02T09:08:43.999Z,1.60
2022-08-02T09:11:18.467Z,1.52
2022-08-02T09:13:56.123Z,2.00
2022-08-02T09:16:33.920Z,1.85
2022-08-02T09:19:22.500Z,1.90
2022-08-02T09:22:05.381Z,1.63
2022-08-02T09:24:47.260Z,1.40
2022-08-02T09:27:22.598Z,1.23
2022-08-02T09:30:13.979Z,1.88
2022-08-02T09:32:51.123Z,1.80
2022-08-02T09:36:06.161Z,1.65
2022-08-02T09:38:35.259Z,2.67
2022-08-02T09:41:10.880Z,1.30
2022-08-02T09:44:03.298Z,1.33
2022-08-02T09:46:40.960Z,1.60
2022-08-02T09:49:15.465Z,1.40
2022-08-02T09:51:58.320Z,1.50
2022-08-02T09:54:33.480Z,1.30
2022-08-02T09:57:05.878Z,1.40
2022-08-02T09:59:38.300Z,1.17
2022-08-02T10:02:17.317Z,1.30
2022-08-02T10:04:52.843Z,1.38
2022-08-02T10:07:29.261Z,1.30
2022-08-02T10:10:01.447Z,1.30
2022-08-02T10:12:34.181Z,1.67
2022-08-02T10:15:07.418Z,1.75
2022-08-02T10:17:41.079Z,1.35
2022-08-02T10:20:14.314Z,1.20
2022-08-02T10:22:50.651Z,1.17
2022-08-02T10:25:25.699Z,1.50
2022-08-02T10:28:06.029Z,1.55
2022-08-02T10:30:42.918Z,1.48
2022-08-02T10:33:17.158Z,1.42
2022-08-02T10:36:04.464Z,1.30
2022-08-02T10:38:44.599Z,1.50
2022-08-02T10:41:17.299Z,1.23
2022-08-02T10:43:52.377Z,1.50
2022-08-02T10:46:33.584Z,1.50
2022-08-02T10:52:12.980Z,1.13
2022-08-02T10:54:53.399Z,1.58
2022-08-02T10:57:30.517Z,1.70
2022-08-02T11:00:17.273Z,1.55
2022-08-02T11:02:53.288Z,1.60
2022-08-02T11:05:42.154Z,1.92
2022-08-02T11:08:25.762Z,1.40
2022-08-02T11:11:18.657Z,1.80
2022-08-02T11:14:07.439Z,1.40
2022-08-02T11:17:13.823Z,1.70
2022-08-02T11:20:15.777Z,1.60
2022-08-02T11:22:49.681Z,1.58
2022-08-02T11:26:02.128Z,1.50
2022-08-02T11:28:30.681Z,1.40
2022-08-02T11:31:05.440Z,1.73
2022-08-02T11:33:38.358Z,1.70
2022-08-02T11:36:11.379Z,1.48
2022-08-02T11:38:44.139Z,1.42
2022-08-02T11:41:39.343Z,1.65
2022-08-02T11:44:18.378Z,2.00
2022-08-02T11:46:59.059Z,1.40
2022-08-02T11:49:32.863Z,1.90
2022-08-02T11:52:08.545Z,1.45
2022-08-02T11:54:43.697Z,1.70
2022-08-02T11:57:20.140Z,1.70
2022-08-02T11:59:57.602Z,1.85
2022-08-02T12:02:31.938Z,1.75
2022-08-02T12:05:08.995Z,1.80
2022-08-02T12:07:45.790Z,1.88
2022-08-02T12:10:21.039Z,1.90
2022-08-02T12:12:54.508Z,1.70
2022-08-02T12:15:45.631Z,1.52
2022-08-02T12:18:32.179Z,1.98
2022-08-02T12:21:04.462Z,1.85
2022-08-02T12:24:00.066Z,1.67
2022-08-02T12:26:34.358Z,1.52
2022-08-02T12:29:07.443Z,1.70
2022-08-02T12:31:56.042Z,1.70
2022-08-02T12:34:32.599Z,1.85
2022-08-02T12:37:08.019Z,1.60
2022-08-02T12:39:43.927Z,1.55
2022-08-02T12:42:18.580Z,1.73
2022-08-02T12:44:55.918Z,1.98
2022-08-02T12:47:35.573Z,1.73
2022-08-02T12:50:21.818Z,1.75
2022-08-02T12:52:55.160Z,1.80
2022-08-02T12:56:01.546Z,1.67
2022-08-02T12:58:22.358Z,2.08
2022-08-02T13:00:57.498Z,2.20
2022-08-02T13:04:10.470Z,1.70
2022-08-02T13:06:41.343Z,1.85
2022-08-02T13:09:20.218Z,1.85
2022-08-02T13:11:52.419Z,1.70
2022-08-02T13:14:24.419Z,1.77
2022-08-02T13:16:56.498Z,2.05
2022-08-02T13:19:31.839Z,1.50
2022-08-02T13:22:04.447Z,1.70
2022-08-02T13:24:40.868Z,1.92
2022-08-02T13:27:28.660Z,1.70
2022-08-02T13:30:01.510Z,1.60
2022-08-02T13:32:33.578Z,1.70
2022-08-02T13:35:18.140Z,1.90
2022-08-02T13:37:50.488Z,1.90
2022-08-02T13:40:23.263Z,2.17
2022-08-02T13:42:55.119Z,2.35
2022-08-02T13:45:28.135Z,1.77
2022-08-02T13:48:03.655Z,2.10
2022-08-02T13:50:40.380Z,1.83
2022-08-02T13:53:12.100Z,1.65
2022-08-02T13:55:44.360Z,1.80
2022-08-02T13:58:16.918Z,1.70
2022-08-02T14:00:49.312Z,1.88
2022-08-02T14:03:21.559Z,2.10
2022-08-02T14:06:00.879Z,1.90
2022-08-02T14:08:33.239Z,1.70
2022-08-02T14:11:06.040Z,1.80
2022-08-02T14:13:38.398Z,1.80
2022-08-02T14:16:11.301Z,2.00
2022-08-02T14:18:43.628Z,2.10
2022-08-02T14:21:19.048Z,2.35
2022-08-02T14:23:51.306Z,1.98
2022-08-02T14:26:27.298Z,1.80
2022-08-02T14:29:00.360Z,1.70
2022-08-02T14:31:33.206Z,1.70
2022-08-02T14:34:05.563Z,2.00
2022-08-02T14:36:41.580Z,4.03
2022-08-02T14:39:14.079Z,2.13
2022-08-02T14:41:59.863Z,2.30
2022-08-02T14:44:33.240Z,2.10
2022-08-02T14:47:06.465Z,2.00
2022-08-02T14:49:41.859Z,1.77
2022-08-02T14:52:17.621Z,1.83
2022-08-02T14:54:50.317Z,2.00
2022-08-02T14:57:23.113Z,2.08
2022-08-02T14:59:55.490Z,2.03
2022-08-02T15:02:27.415Z,2.20
2022-08-02T15:07:51.279Z,2.42
2022-08-02T15:10:23.540Z,2.10
2022-08-02T15:12:56.318Z,2.40
2022-08-02T15:15:29.277Z,2.30
2022-08-02T15:18:03.061Z,2.20
2022-08-02T15:20:35.921Z,2.03
2022-08-02T15:23:15.066Z,2.65
2022-08-02T15:25:47.236Z,1.90
2022-08-02T15:28:24.114Z,2.00
2022-08-02T15:31:04.609Z,1.88
2022-08-02T15:33:38.429Z,2.30
2022-08-02T15:36:10.926Z,1.90
2022-08-02T15:54:51.747Z,2.45
2022-08-02T15:57:24.206Z,2.38
2022-08-02T15:59:56.723Z,2.50
2022-08-02T16:02:29.308Z,2.20
2022-08-02T16:05:01.366Z,2.70
2022-08-02T16:07:35.592Z,2.05
2022-08-02T16:10:14.484Z,2.25
2022-08-02T16:12:47.444Z,2.42
2022-08-02T16:15:19.564Z,1.90
2022-08-02T16:17:54.355Z,2.05
2022-08-02T16:20:26.985Z,2.75
2022-08-02T16:22:59.646Z,2.20
2022-08-02T16:25:47.683Z,1.75
2022-08-02T16:28:20.090Z,2.00
2022-08-02T16:31:05.038Z,1.85
2022-08-02T16:33:43.206Z,2.42
2022-08-02T16:36:15.813Z,2.17
2022-08-02T16:38:51.703Z,2.35
2022-08-02T16:41:45.544Z,1.92
2022-08-02T16:44:27.659Z,5.15
2022-08-02T16:47:02.843Z,6.53
2022-08-02T16:50:06.637Z,2.90
2022-08-02T16:52:27.416Z,2.30
2022-08-02T16:54:59.826Z,2.20
2022-08-02T16:57:43.502Z,2.70
2022-08-02T17:00:22.826Z,2.70
2022-08-02T17:02:59.118Z,2.35
2022-08-02T17:05:37.496Z,2.10
2022-08-02T17:08:17.179Z,2.20
2022-08-02T17:10:49.985Z,2.15
2022-08-02T17:13:24.647Z,2.22
2022-08-02T17:16:16.439Z,2.30
2022-08-02T17:18:49.391Z,1.90
2022-08-02T17:21:21.743Z,2.17
2022-08-02T17:24:07.669Z,2.30
2022-08-02T17:26:41.526Z,2.38
2022-08-02T17:29:17.950Z,2.33
2022-08-02T17:32:12.051Z,1.90
2022-08-02T17:34:56.528Z,2.10
2022-08-02T17:37:32.952Z,2.08
2022-08-02T17:40:08.111Z,2.20
2022-08-02T17:42:42.289Z,2.40
2022-08-02T17:45:25.858Z,2.17
2022-08-02T17:48:09.472Z,2.20
2022-08-02T17:50:48.636Z,2.30
2022-08-02T17:53:21.673Z,2.40
2022-08-02T17:55:53.461Z,2.20
2022-08-02T17:58:33.009Z,3.63
2022-08-02T18:01:24.215Z,2.47
2022-08-02T18:03:56.533Z,2.45
2022-08-02T18:06:30.091Z,2.80
2022-08-02T18:09:02.591Z,2.50
2022-08-02T18:11:52.878Z,2.53
2022-08-02T18:14:27.330Z,3.08
2022-08-02T18:17:08.659Z,2.55
2022-08-02T18:19:54.031Z,2.20
2022-08-02T18:22:31.155Z,2.30
2022-08-02T18:25:09.189Z,2.20
2022-08-02T18:27:42.053Z,2.15
2022-08-02T18:30:23.101Z,5.70
2022-08-02T18:33:58.598Z,2.30
2022-08-02T18:36:00.931Z,2.60
2022-08-02T18:38:32.708Z,2.92
2022-08-02T18:41:12.605Z,4.25
2022-08-02T18:43:45.871Z,4.47
2022-08-02T18:46:20.171Z,4.20
2022-08-02T18:48:56.138Z,3.70
2022-08-02T18:51:28.267Z,5.28
2022-08-02T18:54:08.984Z,4.78
2022-08-02T18:56:47.171Z,4.15
2022-08-02T18:59:20.107Z,4.25
2022-08-02T19:01:52.574Z,4.13
2022-08-02T19:04:28.265Z,4.10
2022-08-02T19:07:07.654Z,3.70
2022-08-02T19:09:49.885Z,4.55
2022-08-02T19:12:27.931Z,5.13
2022-08-02T19:15:01.249Z,3.85
2022-08-02T19:17:54.406Z,4.00
2022-08-02T19:20:29.569Z,4.35
2022-08-02T19:23:03.326Z,3.63
2022-08-02T19:25:39.732Z,3.90
2022-08-02T19:31:16.971Z,3.17
2022-08-02T19:34:07.291Z,3.72
2022-08-02T19:36:47.940Z,3.20
2022-08-02T19:39:23.480Z,3.90
2022-08-02T19:41:59.320Z,3.70
2022-08-02T19:44:32.999Z,3.38
2022-08-02T19:47:05.061Z,4.35
2022-08-02T19:49:44.447Z,3.97
2022-08-02T19:52:25.049Z,4.07
2022-08-02T19:55:01.920Z,3.72
2022-08-02T19:57:49.920Z,3.55
2022-08-02T20:00:26.439Z,3.92
2022-08-02T20:03:00.032Z,3.92
2022-08-02T20:05:32.661Z,4.03
2022-08-02T20:08:08.361Z,4.53
2022-08-02T20:10:40.967Z,4.50
2022-08-02T20:13:18.108Z,4.18
2022-08-02T20:16:01.240Z,4.80
2022-08-02T20:18:34.137Z,5.97
2022-08-02T20:21:34.184Z,5.13
2022-08-02T20:24:03.480Z,5.43
2022-08-02T20:26:35.810Z,5.18
2022-08-02T20:29:11.337Z,5.05
2022-08-02T20:31:44.818Z,5.63
2022-08-02T20:34:16.751Z,5.30
2022-08-02T20:36:53.878Z,5.80
2022-08-02T20:39:42.525Z,5.82
2022-08-02T20:42:23.088Z,5.57
2022-08-02T20:44:57.216Z,5.85
2022-08-02T20:47:39.291Z,5.55
2022-08-02T20:50:31.877Z,5.70
2022-08-02T20:53:04.716Z,4.82
2022-08-02T20:55:44.497Z,5.22
2022-08-02T20:58:17.516Z,5.50
2022-08-02T21:00:52.859Z,5.22
2022-08-02T21:03:25.197Z,4.70
2022-08-02T21:06:15.144Z,5.32
2022-08-02T21:08:49.377Z,4.50
2022-08-02T21:11:25.410Z,4.40
2022-08-02T21:14:08.663Z,5.22
2022-08-02T21:16:59.215Z,4.95
2022-08-02T21:19:32.343Z,4.70
2022-08-02T21:22:04.397Z,4.90
2022-08-02T21:24:36.716Z,5.20
2022-08-02T21:27:51.448Z,4.43
2022-08-02T21:30:04.397Z,4.68
2022-08-02T21:32:36.305Z,4.28
2022-08-02T21:35:09.859Z,4.57
2022-08-02T21:37:44.634Z,4.10
2022-08-02T21:40:17.737Z,4.43
2022-08-02T21:42:53.218Z,4.22
2022-08-02T21:45:25.799Z,4.57
2022-08-02T21:48:00.617Z,4.63
2022-08-02T21:50:33.526Z,4.30
2022-08-02T21:53:08.958Z,4.50
2022-08-02T21:56:01.143Z,4.72
2022-08-02T21:58:37.918Z,4.50
2022-08-02T22:01:10.641Z,4.90
2022-08-02T22:03:55.592Z,4.70
2022-08-02T22:06:28.835Z,4.72
2022-08-02T22:09:00.757Z,4.30
2022-08-02T22:11:35.294Z,4.45
2022-08-02T22:14:10.755Z,3.95
2022-08-02T22:16:44.395Z,4.50
2022-08-02T22:19:17.136Z,4.30
2022-08-02T22:21:55.596Z,4.03
2022-08-02T22:24:30.180Z,4.43
2022-08-02T22:27:02.978Z,4.30
2022-08-02T22:29:37.935Z,3.80
2022-08-02T22:32:11.176Z,4.43
2022-08-02T22:34:52.476Z,4.53
2022-08-02T22:38:14.898Z,4.53
2022-08-02T22:40:16.904Z,4.40
2022-08-02T22:42:49.495Z,4.60
2022-08-02T22:45:24.258Z,4.00
2022-08-02T22:47:56.618Z,4.18
2022-08-02T22:50:29.326Z,4.57
2022-08-02T22:53:03.066Z,4.32
2022-08-02T22:55:35.779Z,4.60
2022-08-02T22:58:13.925Z,4.28
2022-08-02T22:58:48.174Z,3.22
2022-08-02T23:00:48.517Z,4.13
2022-08-02T23:03:20.795Z,3.97
2022-08-02T23:05:53.374Z,4.50
2022-08-02T23:08:25.937Z,4.25
2022-08-02T23:10:58.106Z,4.90
2022-08-02T23:13:30.990Z,4.18
2022-08-02T23:16:17.725Z,4.55
2022-08-02T23:19:02.071Z,3.97
2022-08-02T23:22:01.160Z,4.10
2022-08-02T23:24:30.782Z,4.85
2022-08-02T23:27:02.570Z,4.32
2022-08-02T23:29:34.649Z,4.72
2022-08-02T23:32:09.555Z,4.40
2022-08-02T23:34:42.314Z,4.32
2022-08-02T23:37:17.439Z,3.95
2022-08-02T23:39:49.521Z,4.30
2022-08-02T23:42:23.630Z,4.22
2022-08-02T23:44:56.650Z,4.47
2022-08-02T23:47:31.141Z,4.20
2022-08-02T23:50:03.162Z,4.00
2022-08-02T23:52:35.119Z,4.47
2022-08-02T23:55:07.970Z,3.90
2022-08-02T23:57:39.949Z,4.00
